Time;durP1;ratioP1;P1;durP2;ratioP2;P2;SDS_P1;SDS_P2;PMS_P1;PMS_P2;Temp;Humidity;BMP_temperature;BMP_pressure;BME280_temperature;BME280_humidity;BME280_pressure;Samples;Min_cycle;Max_cycle;Signal;HPM_P1;HPM_P2
2024/03/26 00:00:20;;;;;;;0.32;0.32;;;4.10;99.90;;;;;;4454648;32;20145;-62
2024/03/26 00:02:46;;;;;;;0.50;0.50;;;4.00;99.90;;;;;;4454058;32;20534;-62
2024/03/26 00:05:11;;;;;;;0.40;0.40;;;3.90;99.90;;;;;;4453875;32;20157;-63
2024/03/26 00:07:37;;;;;;;0.40;0.40;;;3.80;99.90;;;;;;4456654;32;20130;-66
2024/03/26 00:10:04;;;;;;;0.43;0.43;;;3.70;99.90;;;;;;4456104;32;20057;-63
2024/03/26 00:12:29;;;;;;;0.85;0.85;;;3.80;99.90;;;;;;4456756;32;20068;-64
2024/03/26 00:14:55;;;;;;;0.40;0.40;;;3.90;99.90;;;;;;4454640;32;20068;-63
2024/03/26 00:17:22;;;;;;;0.50;0.50;;;3.90;99.90;;;;;;4456522;32;20393;-64
2024/03/26 00:19:48;;;;;;;0.68;0.68;;;3.90;99.90;;;;;;4456684;32;20414;-63
2024/03/26 00:22:13;;;;;;;0.40;0.40;;;3.80;99.90;;;;;;4455856;32;20053;-66
2024/03/26 00:24:39;;;;;;;0.50;0.50;;;3.70;99.90;;;;;;4455121;32;20119;-66
2024/03/26 00:27:04;;;;;;;0.60;0.60;;;3.70;99.90;;;;;;4456739;32;20572;-63
2024/03/26 00:29:30;;;;;;;0.32;0.32;;;3.70;99.90;;;;;;4456984;32;20530;-63
2024/03/26 00:31:55;;;;;;;0.88;0.88;;;3.60;99.90;;;;;;4456245;32;20069;-64
2024/03/26 00:34:21;;;;;;;0.70;0.70;;;3.50;99.90;;;;;;4456610;32;20081;-63
2024/03/26 00:36:46;;;;;;;0.98;0.73;;;3.50;99.90;;;;;;4457125;32;20061;-63
2024/03/26 00:39:12;;;;;;;0.75;0.75;;;3.50;99.90;;;;;;4457437;32;20069;-63
2024/03/26 00:41:37;;;;;;;0.40;0.40;;;3.50;99.90;;;;;;4455918;32;20072;-65
2024/03/26 00:44:03;;;;;;;0.70;0.70;;;3.50;99.90;;;;;;4455258;32;20084;-66
2024/03/26 00:46:28;;;;;;;1.45;0.98;;;3.50;99.90;;;;;;4456712;32;20056;-66
2024/03/26 00:48:53;;;;;;;0.50;0.50;;;3.40;99.90;;;;;;4456239;32;20793;-66
2024/03/26 00:51:19;;;;;;;0.73;0.73;;;3.50;99.90;;;;;;4455812;32;20068;-66
2024/03/26 00:53:44;;;;;;;0.47;0.47;;;3.50;99.90;;;;;;4455347;32;20064;-66
2024/03/26 00:56:10;;;;;;;0.40;0.40;;;3.50;99.90;;;;;;4455835;32;20119;-66
2024/03/26 00:58:35;;;;;;;0.50;0.50;;;3.50;99.90;;;;;;4454933;32;20080;-66
2024/03/26 01:01:07;;;;;;;0.40;0.40;;;3.40;99.90;;;;;;4453559;32;20080;-65
2024/03/26 01:03:32;;;;;;;1.62;1.05;;;3.40;99.90;;;;;;4455640;32;20520;-65
2024/03/26 01:05:58;;;;;;;4.72;1.58;;;3.50;99.90;;;;;;4455998;32;20110;-65
2024/03/26 01:08:23;;;;;;;0.55;0.55;;;3.60;99.90;;;;;;4453595;32;20081;-66
2024/03/26 01:10:49;;;;;;;0.90;0.82;;;3.60;99.90;;;;;;4454199;32;20073;-65
2024/03/26 01:13:15;;;;;;;0.60;0.60;;;3.60;99.90;;;;;;4455287;32;20123;-65
2024/03/26 01:15:40;;;;;;;0.60;0.60;;;3.60;99.90;;;;;;4454827;32;20122;-62
2024/03/26 01:18:06;;;;;;;0.95;0.95;;;3.70;99.90;;;;;;4454939;32;20068;-66
2024/03/26 01:20:31;;;;;;;0.60;0.60;;;3.60;99.90;;;;;;4452456;32;20981;-65
2024/03/26 01:22:58;;;;;;;0.40;0.40;;;3.50;99.90;;;;;;4454936;32;20116;-66
2024/03/26 01:25:23;;;;;;;0.32;0.32;;;3.40;99.90;;;;;;4445625;32;20085;-65
2024/03/26 01:27:49;;;;;;;0.30;0.30;;;3.40;99.90;;;;;;4454722;32;20069;-65
2024/03/26 01:30:14;;;;;;;1.05;1.05;;;3.40;99.90;;;;;;4456044;32;20581;-66
2024/03/26 01:32:40;;;;;;;0.40;0.40;;;3.50;99.90;;;;;;4455042;32;20117;-66
2024/03/26 01:35:06;;;;;;;0.70;0.70;;;3.50;99.90;;;;;;4447992;32;20445;-66
2024/03/26 01:37:31;;;;;;;0.30;0.30;;;3.50;99.90;;;;;;4454939;32;20127;-66
2024/03/26 01:39:57;;;;;;;0.52;0.52;;;3.50;99.90;;;;;;4454238;32;20142;-65
2024/03/26 01:42:22;;;;;;;1.85;1.23;;;3.50;99.90;;;;;;4455348;32;20081;-66
2024/03/26 01:44:48;;;;;;;0.60;0.60;;;3.50;99.90;;;;;;4455873;32;20713;-66
2024/03/26 01:47:14;;;;;;;0.40;0.40;;;3.40;99.90;;;;;;4454536;32;20065;-65
2024/03/26 01:49:39;;;;;;;0.40;0.40;;;3.30;99.90;;;;;;4454168;32;20068;-65
2024/03/26 01:52:05;;;;;;;0.57;0.57;;;3.20;99.90;;;;;;4453844;32;20169;-66
2024/03/26 01:54:31;;;;;;;0.40;0.40;;;3.10;99.90;;;;;;4454835;32;20089;-67
2024/03/26 01:56:56;;;;;;;1.65;0.88;;;3.20;99.90;;;;;;4453403;32;20060;-65
2024/03/26 01:59:25;;;;;;;0.68;0.68;;;3.30;99.90;;;;;;4454081;32;20066;-66
2024/03/26 02:01:51;;;;;;;4.60;1.10;;;3.40;99.90;;;;;;4453371;32;20073;-65
2024/03/26 02:04:16;;;;;;;0.55;0.55;;;3.40;99.90;;;;;;4455058;32;20390;-66
2024/03/26 02:06:42;;;;;;;0.55;0.55;;;3.40;99.90;;;;;;4454706;32;20088;-66
2024/03/26 02:09:07;;;;;;;0.77;0.77;;;3.40;99.90;;;;;;4454663;32;20088;-66
2024/03/26 02:11:33;;;;;;;0.43;0.43;;;3.40;99.90;;;;;;4454275;32;20088;-66
2024/03/26 02:13:58;;;;;;;0.82;0.75;;;3.40;99.90;;;;;;4454240;32;20076;-66
2024/03/26 02:16:24;;;;;;;0.50;0.50;;;3.40;99.90;;;;;;4453552;32;20081;-66
2024/03/26 02:18:49;;;;;;;0.45;0.45;;;3.40;99.90;;;;;;4453827;32;20461;-66
2024/03/26 02:21:15;;;;;;;0.45;0.45;;;3.50;99.90;;;;;;4455341;32;20068;-66
2024/03/26 02:23:41;;;;;;;0.40;0.40;;;3.40;99.90;;;;;;4454878;32;20480;-66
2024/03/26 02:26:17;;;;;;;0.60;0.60;;;3.50;99.90;;;;;;4451214;32;20116;-65
2024/03/26 02:28:43;;;;;;;0.30;0.30;;;3.50;99.90;;;;;;4453674;32;20064;-66
2024/03/26 02:31:08;;;;;;;6.80;1.27;;;3.50;99.90;;;;;;4453176;32;20097;-65
2024/03/26 02:33:34;;;;;;;0.75;0.70;;;3.50;99.90;;;;;;4454252;32;20068;-65
2024/03/26 02:35:59;;;;;;;0.30;0.30;;;3.50;99.90;;;;;;4453550;32;21148;-65
2024/03/26 02:38:25;;;;;;;2.72;0.82;;;3.40;99.90;;;;;;4454706;32;20069;-65
2024/03/26 02:40:50;;;;;;;0.50;0.50;;;3.40;99.90;;;;;;4453743;32;20060;-65
2024/03/26 02:43:16;;;;;;;0.70;0.70;;;3.30;99.90;;;;;;4453855;32;20517;-65
2024/03/26 02:45:41;;;;;;;0.37;0.37;;;3.30;99.90;;;;;;4454129;32;20548;-65
2024/03/26 02:48:07;;;;;;;7.93;0.85;;;3.30;99.90;;;;;;4453180;32;20072;-65
2024/03/26 02:50:33;;;;;;;0.30;0.30;;;3.40;99.90;;;;;;4450890;32;20561;-65
2024/03/26 02:52:58;;;;;;;0.52;0.52;;;3.40;99.90;;;;;;4453229;32;20076;-65
2024/03/26 02:55:23;;;;;;;0.30;0.30;;;3.30;99.90;;;;;;4454025;32;20392;-65
2024/03/26 02:57:49;;;;;;;0.40;0.40;;;3.30;99.90;;;;;;4454204;32;20073;-65
2024/03/26 03:00:15;;;;;;;0.30;0.30;;;3.30;99.90;;;;;;4452682;32;20064;-65
2024/03/26 03:02:40;;;;;;;0.80;0.73;;;3.40;99.90;;;;;;4454470;32;20529;-65
2024/03/26 03:05:06;;;;;;;0.40;0.40;;;3.40;99.90;;;;;;4456003;32;20773;-65
2024/03/26 03:07:31;;;;;;;0.55;0.55;;;3.40;99.90;;;;;;4453630;32;20149;-66
2024/03/26 03:09:57;;;;;;;0.50;0.50;;;3.50;99.90;;;;;;4455947;32;20520;-66
2024/03/26 03:12:22;;;;;;;0.40;0.40;;;3.40;99.90;;;;;;4454516;32;20860;-66
2024/03/26 03:14:48;;;;;;;0.40;0.40;;;3.40;99.90;;;;;;4453331;32;20073;-65
2024/03/26 03:17:14;;;;;;;0.50;0.50;;;3.50;99.90;;;;;;4454882;32;20076;-66
2024/03/26 03:19:39;;;;;;;0.60;0.60;;;3.40;99.90;;;;;;4454036;32;20524;-66
2024/03/26 03:22:05;;;;;;;0.30;0.30;;;3.40;99.90;;;;;;4455582;32;20069;-65
2024/03/26 03:24:30;;;;;;;0.93;0.93;;;3.40;99.90;;;;;;4446483;32;20065;-66
2024/03/26 03:26:55;;;;;;;0.40;0.40;;;3.40;99.90;;;;;;4456647;32;20086;-65
2024/03/26 03:29:21;;;;;;;1.75;0.93;;;3.40;99.90;;;;;;4455785;32;20068;-66
2024/03/26 03:31:46;;;;;;;0.43;0.43;;;3.30;99.90;;;;;;4458003;32;20073;-66
2024/03/26 03:34:12;;;;;;;0.32;0.32;;;3.30;99.90;;;;;;4456327;32;20100;-65
2024/03/26 03:36:37;;;;;;;0.40;0.40;;;3.20;99.90;;;;;;4455542;32;20163;-65
2024/03/26 03:39:04;;;;;;;0.65;0.65;;;3.20;99.90;;;;;;4457121;32;20080;-66
2024/03/26 03:41:30;;;;;;;0.47;0.47;;;3.30;99.90;;;;;;4455832;32;20513;-66
2024/03/26 03:43:56;;;;;;;0.85;0.75;;;3.20;99.90;;;;;;4456628;32;20163;-66
2024/03/26 03:46:21;;;;;;;0.40;0.40;;;3.20;99.90;;;;;;4455122;32;20080;-66
2024/03/26 03:48:46;;;;;;;0.40;0.40;;;3.20;99.90;;;;;;4455178;32;20089;-65
2024/03/26 03:51:12;;;;;;;0.50;0.50;;;3.20;99.90;;;;;;4454767;32;20125;-65
2024/03/26 03:53:37;;;;;;;0.40;0.40;;;3.10;99.90;;;;;;4456121;32;20085;-65
2024/03/26 03:56:03;;;;;;;0.52;0.52;;;3.10;99.90;;;;;;4454304;32;20056;-65
2024/03/26 03:58:29;;;;;;;0.40;0.40;;;3.20;99.90;;;;;;4455680;32;20434;-65
2024/03/26 04:00:54;;;;;;;0.60;0.60;;;3.20;99.90;;;;;;4454804;32;20595;-64
2024/03/26 04:03:19;;;;;;;0.47;0.47;;;3.10;99.90;;;;;;4454323;32;20085;-66
2024/03/26 04:05:45;;;;;;;0.40;0.40;;;3.20;99.90;;;;;;4456486;32;20080;-65
2024/03/26 04:08:10;;;;;;;0.88;0.88;;;3.10;99.90;;;;;;4453668;32;20088;-65
2024/03/26 04:10:40;;;;;;;0.50;0.50;;;3.20;99.90;;;;;;4449675;32;20127;-65
2024/03/26 04:13:05;;;;;;;0.30;0.30;;;3.20;99.90;;;;;;4455549;32;20101;-65
2024/03/26 04:15:31;;;;;;;0.40;0.40;;;3.20;99.90;;;;;;4456825;32;20438;-66
2024/03/26 04:17:56;;;;;;;0.50;0.50;;;3.20;99.90;;;;;;4456679;32;20072;-65
2024/03/26 04:20:22;;;;;;;0.60;0.60;;;3.20;99.90;;;;;;4456851;32;20073;-65
2024/03/26 04:22:48;;;;;;;0.60;0.60;;;3.20;99.90;;;;;;4456567;32;20073;-65
2024/03/26 04:25:14;;;;;;;0.50;0.50;;;3.20;99.90;;;;;;4455595;32;20639;-65
2024/03/26 04:27:39;;;;;;;1.77;0.95;;;3.20;99.90;;;;;;4454066;32;20213;-65
2024/03/26 04:30:07;;;;;;;0.35;0.35;;;3.20;99.90;;;;;;4455975;32;20069;-65
2024/03/26 04:32:33;;;;;;;0.40;0.40;;;3.20;99.90;;;;;;4455329;32;20141;-66
2024/03/26 04:34:59;;;;;;;0.40;0.40;;;3.20;99.90;;;;;;4442582;32;20112;-65
2024/03/26 04:37:24;;;;;;;1.45;0.77;;;3.10;99.90;;;;;;4455019;32;20543;-65
2024/03/26 04:39:50;;;;;;;0.30;0.30;;;3.10;99.90;;;;;;4456579;32;20053;-65
2024/03/26 04:42:15;;;;;;;0.65;0.65;;;3.20;99.90;;;;;;4449152;32;20061;-65
2024/03/26 04:44:41;;;;;;;0.50;0.50;;;3.20;99.90;;;;;;4456823;32;20060;-62
2024/03/26 04:47:07;;;;;;;0.60;0.60;;;3.20;99.90;;;;;;4456868;32;20113;-65
2024/03/26 04:49:32;;;;;;;0.30;0.30;;;3.00;99.90;;;;;;4455069;32;20142;-64
2024/03/26 04:51:58;;;;;;;0.40;0.40;;;3.10;99.90;;;;;;4449439;32;20109;-65
2024/03/26 04:54:23;;;;;;;0.50;0.50;;;3.20;99.90;;;;;;4455065;32;20065;-65
2024/03/26 04:56:49;;;;;;;0.40;0.40;;;3.20;99.90;;;;;;4456942;32;20122;-65
2024/03/26 04:59:14;;;;;;;0.50;0.50;;;3.20;99.90;;;;;;4455871;32;20559;-65
2024/03/26 05:01:40;;;;;;;0.60;0.60;;;3.10;99.90;;;;;;4456201;32;20085;-65
2024/03/26 05:04:05;;;;;;;0.50;0.50;;;3.20;99.90;;;;;;4456845;32;20126;-65
2024/03/26 05:06:31;;;;;;;0.30;0.30;;;3.20;99.90;;;;;;4456789;32;20089;-61
2024/03/26 05:08:56;;;;;;;0.80;0.80;;;3.20;99.90;;;;;;4447320;32;20384;-62
2024/03/26 05:11:22;;;;;;;0.40;0.40;;;3.20;99.90;;;;;;4458291;32;20060;-65
2024/03/26 05:13:47;;;;;;;0.57;0.57;;;3.20;99.90;;;;;;4456871;32;20096;-65
2024/03/26 05:16:13;;;;;;;1.25;0.57;;;3.20;99.90;;;;;;4455698;32;20061;-67
2024/03/26 05:18:38;;;;;;;3.10;1.20;;;3.20;99.90;;;;;;4456633;32;20086;-65
2024/03/26 05:21:04;;;;;;;0.30;0.30;;;3.20;99.90;;;;;;4457157;32;20524;-61
2024/03/26 05:23:29;;;;;;;0.40;0.40;;;3.30;99.90;;;;;;4454918;32;20150;-64
2024/03/26 05:25:55;;;;;;;0.70;0.70;;;3.30;99.90;;;;;;4455850;32;20122;-66
2024/03/26 05:28:20;;;;;;;0.65;0.62;;;3.30;99.90;;;;;;4453265;32;20093;-64
2024/03/26 05:30:46;;;;;;;0.30;0.30;;;3.40;99.90;;;;;;4456632;32;20115;-65
2024/03/26 05:33:12;;;;;;;0.40;0.40;;;3.40;99.90;;;;;;4454546;32;20060;-66
2024/03/26 05:35:37;;;;;;;0.80;0.80;;;3.40;99.90;;;;;;4456364;32;20072;-64
2024/03/26 05:38:03;;;;;;;1.25;1.15;;;3.40;99.90;;;;;;4444258;32;20065;-65
2024/03/26 05:40:29;;;;;;;0.60;0.60;;;3.40;99.90;;;;;;4456978;32;20101;-65
2024/03/26 05:42:54;;;;;;;0.30;0.30;;;3.40;99.90;;;;;;4454679;32;20115;-64
2024/03/26 05:45:20;;;;;;;0.70;0.70;;;3.40;99.90;;;;;;4457330;32;20089;-66
2024/03/26 05:47:45;;;;;;;0.40;0.40;;;3.50;99.90;;;;;;4453375;32;20061;-64
2024/03/26 05:50:12;;;;;;;0.98;0.98;;;3.70;99.90;;;;;;4452485;32;20061;-66
2024/03/26 05:52:37;;;;;;;0.60;0.60;;;3.70;99.90;;;;;;4454477;32;20155;-65
2024/03/26 05:55:03;;;;;;;0.40;0.40;;;3.80;99.90;;;;;;4453332;32;20127;-65
2024/03/26 05:57:28;;;;;;;0.40;0.40;;;3.90;99.90;;;;;;4455273;32;20572;-65
2024/03/26 05:59:54;;;;;;;0.40;0.40;;;3.90;99.90;;;;;;4454482;32;20115;-65
2024/03/26 06:02:19;;;;;;;0.35;0.35;;;4.00;99.90;;;;;;4454305;32;20647;-65
2024/03/26 06:04:45;;;;;;;0.55;0.55;;;3.90;99.90;;;;;;4453169;32;20081;-64
2024/03/26 06:07:11;;;;;;;0.30;0.30;;;4.00;99.90;;;;;;4453824;32;20375;-65
2024/03/26 06:09:37;;;;;;;0.52;0.52;;;4.00;99.90;;;;;;4448667;32;20064;-65
2024/03/26 06:12:02;;;;;;;1.45;0.95;;;4.10;99.90;;;;;;4450929;32;20068;-65
2024/03/26 06:14:28;;;;;;;0.40;0.40;;;4.10;99.90;;;;;;4448156;32;20092;-65
2024/03/26 06:16:53;;;;;;;0.40;0.40;;;4.10;99.90;;;;;;4454679;32;20085;-65
2024/03/26 06:19:19;;;;;;;0.32;0.32;;;4.20;99.90;;;;;;4454662;32;20078;-65
2024/03/26 06:21:45;;;;;;;0.40;0.40;;;4.30;99.90;;;;;;4454244;32;20119;-66
2024/03/26 06:24:11;;;;;;;1.40;0.82;;;4.30;99.90;;;;;;4453351;32;20528;-66
2024/03/26 06:26:36;;;;;;;0.57;0.57;;;4.40;99.90;;;;;;4455080;32;20077;-66
2024/03/26 06:29:02;;;;;;;0.52;0.52;;;4.40;99.90;;;;;;4454917;32;20068;-67
2024/03/26 06:31:28;;;;;;;0.32;0.32;;;4.50;99.90;;;;;;4455317;32;20076;-67
2024/03/26 06:33:53;;;;;;;0.40;0.40;;;4.50;99.90;;;;;;4454073;32;20482;-67
2024/03/26 06:36:19;;;;;;;0.40;0.40;;;4.60;99.90;;;;;;4453018;32;20064;-65
2024/03/26 06:38:44;;;;;;;0.37;0.37;;;4.80;99.90;;;;;;4454876;32;21114;-66
2024/03/26 06:41:10;;;;;;;0.50;0.50;;;4.90;99.90;;;;;;4454870;32;20509;-65
2024/03/26 06:43:36;;;;;;;0.80;0.80;;;4.90;99.90;;;;;;4453425;32;20133;-65
2024/03/26 06:46:02;;;;;;;0.45;0.45;;;5.10;99.90;;;;;;4453939;32;20076;-65
2024/03/26 06:48:28;;;;;;;0.37;0.37;;;5.20;99.90;;;;;;4455485;32;20085;-68
2024/03/26 06:50:53;;;;;;;0.60;0.60;;;5.30;99.90;;;;;;4455060;32;20073;-65
2024/03/26 06:53:19;;;;;;;0.55;0.55;;;5.40;99.90;;;;;;4454875;32;20206;-62
2024/03/26 06:55:44;;;;;;;0.62;0.62;;;5.30;99.90;;;;;;4455388;32;20061;-63
2024/03/26 06:58:10;;;;;;;0.35;0.35;;;5.40;99.90;;;;;;4453070;32;20581;-61
2024/03/26 07:00:35;;;;;;;0.52;0.52;;;5.50;99.90;;;;;;4454244;32;20076;-65
2024/03/26 07:03:01;;;;;;;2.67;1.23;;;5.50;99.90;;;;;;4454456;32;20092;-61
2024/03/26 07:05:26;;;;;;;0.82;0.50;;;5.60;99.90;;;;;;4455807;32;20061;-62
2024/03/26 07:07:52;;;;;;;0.35;0.35;;;5.60;99.90;;;;;;4455871;32;20435;-61
2024/03/26 07:10:18;;;;;;;0.60;0.60;;;5.80;99.90;;;;;;4447118;32;20064;-61
2024/03/26 07:12:43;;;;;;;0.40;0.40;;;5.90;99.90;;;;;;4439029;32;20064;-63
2024/03/26 07:15:10;;;;;;;0.32;0.32;;;6.00;99.90;;;;;;4453660;32;20525;-64
2024/03/26 07:17:38;;;;;;;8.88;1.00;;;6.10;99.90;;;;;;4453784;32;20520;-60
2024/03/26 07:20:04;;;;;;;0.75;0.52;;;6.20;99.90;;;;;;4446381;32;20069;-62
2024/03/26 07:22:30;;;;;;;5.60;1.77;;;6.30;99.90;;;;;;4454593;32;20068;-61
2024/03/26 07:24:55;;;;;;;0.50;0.50;;;6.30;99.90;;;;;;4456106;32;20061;-61
2024/03/26 07:27:21;;;;;;;0.30;0.30;;;6.40;99.90;;;;;;4453613;32;20076;-61
2024/03/26 07:29:47;;;;;;;1.00;0.70;;;6.50;99.90;;;;;;4452719;32;20551;-61
2024/03/26 07:32:12;;;;;;;0.60;0.60;;;6.50;99.90;;;;;;4453385;32;20092;-64
2024/03/26 07:34:38;;;;;;;0.30;0.30;;;6.60;99.90;;;;;;4448091;32;20532;-63
2024/03/26 07:37:03;;;;;;;0.55;0.55;;;6.70;99.90;;;;;;4453765;32;20112;-62
2024/03/26 07:39:29;;;;;;;0.40;0.40;;;6.90;99.90;;;;;;4454351;32;20077;-62
2024/03/26 07:41:56;;;;;;;0.43;0.43;;;7.00;99.90;;;;;;4454960;32;20128;-63
2024/03/26 07:44:21;;;;;;;0.45;0.45;;;7.10;99.90;;;;;;4454013;32;20464;-62
2024/03/26 07:46:47;;;;;;;0.30;0.30;;;7.20;99.90;;;;;;4455147;32;21200;-61
2024/03/26 07:49:12;;;;;;;0.40;0.40;;;7.20;99.90;;;;;;4454248;32;20068;-60
2024/03/26 07:51:38;;;;;;;0.52;0.52;;;7.40;99.90;;;;;;4453759;32;20162;-61
2024/03/26 07:54:05;;;;;;;0.40;0.40;;;7.40;99.90;;;;;;4437660;32;20061;-60
2024/03/26 07:56:31;;;;;;;0.40;0.40;;;7.60;99.90;;;;;;4443804;32;20131;-61
2024/03/26 07:58:57;;;;;;;0.30;0.30;;;7.60;99.90;;;;;;4454189;32;20076;-61
2024/03/26 08:01:22;;;;;;;0.37;0.37;;;7.70;99.90;;;;;;4455498;32;20068;-64
2024/03/26 08:03:49;;;;;;;0.80;0.80;;;7.80;99.90;;;;;;4454532;32;20113;-63
2024/03/26 08:06:14;;;;;;;0.40;0.40;;;7.90;99.90;;;;;;4448200;32;20068;-63
2024/03/26 08:08:40;;;;;;;1.27;0.62;;;8.00;99.90;;;;;;4453758;32;20169;-62
2024/03/26 08:11:05;;;;;;;0.82;0.82;;;8.10;99.90;;;;;;4455097;32;20064;-62
2024/03/26 08:13:31;;;;;;;0.40;0.40;;;8.10;99.90;;;;;;4456247;32;20097;-62
2024/03/26 08:15:57;;;;;;;0.50;0.50;;;8.30;99.90;;;;;;4456311;32;20599;-62
2024/03/26 08:18:23;;;;;;;0.30;0.30;;;8.40;99.90;;;;;;4455552;32;20123;-61
2024/03/26 08:20:49;;;;;;;1.55;0.73;;;8.50;99.90;;;;;;4456150;32;20483;-60
2024/03/26 08:23:15;;;;;;;0.80;0.80;;;8.60;99.90;;;;;;4455429;32;20065;-62
2024/03/26 08:25:41;;;;;;;1.35;1.02;;;8.60;99.90;;;;;;4456275;32;20065;-62
2024/03/26 08:28:06;;;;;;;0.40;0.40;;;8.70;99.90;;;;;;4456298;32;20081;-63
2024/03/26 08:30:32;;;;;;;0.30;0.30;;;8.80;99.90;;;;;;4455521;32;20084;-61
2024/03/26 08:32:57;;;;;;;0.43;0.43;;;8.80;99.90;;;;;;4456645;32;20512;-63
2024/03/26 08:35:24;;;;;;;1.10;0.60;;;8.90;99.90;;;;;;4457175;32;20127;-62
2024/03/26 08:37:50;;;;;;;0.43;0.40;;;9.10;99.90;;;;;;4455412;32;20115;-63
2024/03/26 08:40:15;;;;;;;0.90;0.77;;;9.10;99.90;;;;;;4456227;32;20089;-63
2024/03/26 08:42:41;;;;;;;0.30;0.30;;;9.20;99.90;;;;;;4456498;32;20061;-66
2024/03/26 08:45:06;;;;;;;0.82;0.82;;;9.30;99.90;;;;;;4455319;32;20076;-66
2024/03/26 08:47:34;;;;;;;0.30;0.30;;;9.40;99.90;;;;;;4456032;32;20107;-66
2024/03/26 08:50:00;;;;;;;0.20;0.20;;;9.50;99.90;;;;;;4455411;32;20532;-69
2024/03/26 08:52:25;;;;;;;0.50;0.50;;;9.70;99.90;;;;;;4456065;32;20068;-65
2024/03/26 08:54:51;;;;;;;0.60;0.60;;;9.70;99.90;;;;;;4437876;32;20069;-67
2024/03/26 08:57:17;;;;;;;0.30;0.30;;;9.80;99.90;;;;;;4439033;32;20104;-66
2024/03/26 08:59:44;;;;;;;0.30;0.30;;;9.90;99.90;;;;;;4440345;32;20072;-66
2024/03/26 09:02:09;;;;;;;0.30;0.30;;;10.00;99.90;;;;;;4439842;32;20065;-66
2024/03/26 09:04:36;;;;;;;0.20;0.20;;;10.10;99.90;;;;;;4439542;32;20256;-66
2024/03/26 09:07:01;;;;;;;0.30;0.30;;;10.00;99.90;;;;;;4439890;32;20064;-67
2024/03/26 09:09:27;;;;;;;0.28;0.28;;;10.10;99.90;;;;;;4440220;32;20631;-65
2024/03/26 09:11:53;;;;;;;49.90;1.75;;;10.40;99.90;;;;;;4440970;32;20112;-63
2024/03/26 09:14:19;;;;;;;0.30;0.30;;;10.60;99.90;;;;;;4426237;32;20073;-62
2024/03/26 09:16:45;;;;;;;0.68;0.68;;;10.70;99.90;;;;;;4440742;32;20077;-62
2024/03/26 09:19:10;;;;;;;0.62;0.62;;;10.70;99.90;;;;;;4412516;32;20413;-63
2024/03/26 09:21:36;;;;;;;4.47;2.05;;;10.70;99.90;;;;;;4442150;32;20128;-63
2024/03/26 09:24:02;;;;;;;0.50;0.47;;;10.70;99.90;;;;;;4426010;32;20093;-63
2024/03/26 09:26:27;;;;;;;0.52;0.52;;;10.80;99.90;;;;;;4441073;32;20068;-63
2024/03/26 09:28:53;;;;;;;0.65;0.45;;;10.90;99.90;;;;;;4440883;32;20122;-64
2024/03/26 09:31:19;;;;;;;0.73;0.35;;;11.10;99.90;;;;;;4440637;32;20567;-63
2024/03/26 09:33:45;;;;;;;0.65;0.65;;;11.10;99.90;;;;;;4440887;32;20530;-64
2024/03/26 09:36:10;;;;;;;0.73;0.73;;;11.40;99.90;;;;;;4441432;32;20068;-63
2024/03/26 09:38:35;;;;;;;0.60;0.60;;;11.50;99.90;;;;;;4440797;32;20430;-63
2024/03/26 09:41:02;;;;;;;0.40;0.40;;;11.50;99.90;;;;;;4441052;32;20069;-62
2024/03/26 09:43:28;;;;;;;0.95;0.90;;;11.50;99.90;;;;;;4441975;32;20094;-63
2024/03/26 09:45:56;;;;;;;0.35;0.35;;;11.90;99.90;;;;;;4425594;32;20061;-62
2024/03/26 09:48:21;;;;;;;0.40;0.40;;;12.10;99.90;;;;;;4440099;32;20074;-63
2024/03/26 09:50:49;;;;;;;0.47;0.47;;;12.20;99.90;;;;;;4439940;32;20520;-63
2024/03/26 09:53:17;;;;;;;0.40;0.40;;;12.30;99.90;;;;;;4433309;32;20086;-66
2024/03/26 09:55:43;;;;;;;0.40;0.40;;;12.50;99.90;;;;;;4446262;32;20188;-66
2024/03/26 09:58:09;;;;;;;1.23;0.82;;;12.80;99.90;;;;;;4445743;32;20080;-66
2024/03/26 10:00:37;;;;;;;0.30;0.30;;;12.70;99.90;;;;;;4455489;32;20528;-67
2024/03/26 10:03:06;;;;;;;0.52;0.52;;;12.60;99.90;;;;;;4455529;32;20480;-64
2024/03/26 10:05:31;;;;;;;0.62;0.60;;;12.50;99.90;;;;;;4440273;32;20056;-65
2024/03/26 10:07:57;;;;;;;0.32;0.32;;;12.70;99.90;;;;;;4454288;32;20065;-65
2024/03/26 10:10:23;;;;;;;0.62;0.57;;;12.80;99.90;;;;;;4455347;32;20123;-66
2024/03/26 10:12:48;;;;;;;0.60;0.60;;;12.90;99.90;;;;;;4453813;32;20781;-66
2024/03/26 10:15:14;;;;;;;0.70;0.70;;;13.00;99.90;;;;;;4455962;32;20134;-65
2024/03/26 10:17:39;;;;;;;0.43;0.43;;;12.90;99.80;;;;;;4454634;32;20068;-67
2024/03/26 10:20:05;;;;;;;0.62;0.62;;;13.10;99.90;;;;;;4453304;32;20073;-67
2024/03/26 10:22:31;;;;;;;0.70;0.70;;;13.30;99.20;;;;;;4453747;32;20181;-63
2024/03/26 10:24:56;;;;;;;0.50;0.50;;;13.20;98.60;;;;;;4456226;32;20131;-63
2024/03/26 10:27:23;;;;;;;0.40;0.40;;;13.10;98.60;;;;;;4456162;32;20596;-63
2024/03/26 10:29:52;;;;;;;0.30;0.30;;;13.20;99.00;;;;;;4447395;32;20082;-63
2024/03/26 10:32:22;;;;;;;0.50;0.50;;;13.40;98.70;;;;;;4449758;32;20080;-63
2024/03/26 10:34:53;;;;;;;0.40;0.40;;;13.70;98.50;;;;;;4444693;32;20108;-63
2024/03/26 10:37:20;;;;;;;;;;;13.90;97.60;;;;;;4449386;32;20092;-64
2024/03/26 10:39:47;;;;;;;0.50;0.50;;;14.00;97.40;;;;;;4455927;32;20345;-63
2024/03/26 10:42:14;;;;;;;0.40;0.40;;;14.00;98.80;;;;;;4456775;32;20061;-64
2024/03/26 10:44:40;;;;;;;0.40;0.40;;;14.10;96.90;;;;;;4456559;32;20097;-63
2024/03/26 10:47:06;;;;;;;0.50;0.50;;;14.20;97.00;;;;;;4455819;32;20064;-63
2024/03/26 10:49:32;;;;;;;11.80;0.77;;;14.20;96.40;;;;;;4446758;32;20056;-64
2024/03/26 10:52:01;;;;;;;0.60;0.60;;;14.20;97.00;;;;;;4455622;32;20092;-63
2024/03/26 10:54:29;;;;;;;0.80;0.65;;;14.60;96.70;;;;;;4454792;32;20054;-63
2024/03/26 10:56:56;;;;;;;0.55;0.55;;;14.90;95.70;;;;;;4454254;32;20077;-64
2024/03/26 10:59:22;;;;;;;0.75;0.75;;;15.20;95.60;;;;;;4447496;32;20048;-62
2024/03/26 11:01:48;;;;;;;0.55;0.55;;;15.30;95.00;;;;;;4455956;32;20525;-64
2024/03/26 11:04:15;;;;;;;0.60;0.60;;;15.40;94.50;;;;;;4456017;32;20130;-62
2024/03/26 11:06:40;;;;;;;0.50;0.50;;;15.60;94.20;;;;;;4456325;32;20081;-66
2024/03/26 11:09:08;;;;;;;0.47;0.47;;;15.80;94.50;;;;;;4456000;32;20419;-63
2024/03/26 11:11:35;;;;;;;0.50;0.50;;;15.80;94.40;;;;;;4456311;32;20065;-63
2024/03/26 11:14:03;;;;;;;0.50;0.50;;;15.60;94.30;;;;;;4456036;32;20155;-64
2024/03/26 11:16:34;;;;;;;0.60;0.60;;;15.50;93.60;;;;;;4455083;32;20077;-62
2024/03/26 11:19:15;;;;;;;0.47;0.47;;;15.10;94.10;;;;;;4455956;32;20081;-63
2024/03/26 11:21:41;;;;;;;0.70;0.50;;;15.30;94.40;;;;;;4455514;32;20511;-63
2024/03/26 11:24:06;;;;;;;1.65;0.77;;;15.40;94.20;;;;;;4457374;32;20076;-63
2024/03/26 11:26:32;;;;;;;0.50;0.50;;;15.30;93.30;;;;;;4447533;32;20065;-62
2024/03/26 11:28:58;;;;;;;0.73;0.70;;;15.20;94.20;;;;;;4454571;32;20062;-62
2024/03/26 11:31:25;;;;;;;0.45;0.45;;;15.40;94.20;;;;;;4455710;32;20675;-60
2024/03/26 11:33:53;;;;;;;0.40;0.40;;;16.00;93.40;;;;;;4453458;32;20082;-63
2024/03/26 11:36:19;;;;;;;1.15;0.65;;;16.30;92.10;;;;;;4447858;32;20127;-60
2024/03/26 11:38:47;;;;;;;0.55;0.55;;;16.60;92.50;;;;;;4438720;32;20089;-61
2024/03/26 11:41:14;;;;;;;0.60;0.60;;;16.20;92.60;;;;;;4454707;32;20085;-62
2024/03/26 11:43:41;;;;;;;0.40;0.40;;;16.10;92.30;;;;;;4453405;32;20116;-62
2024/03/26 11:46:08;;;;;;;0.70;0.70;;;16.00;91.90;;;;;;4449974;32;20068;-64
2024/03/26 11:48:34;;;;;;;0.30;0.30;;;16.40;92.20;;;;;;4454320;32;20804;-62
2024/03/26 11:50:59;;;;;;;0.45;0.45;;;16.80;91.30;;;;;;4454015;32;20069;-66
2024/03/26 11:53:26;;;;;;;0.30;0.30;;;17.20;90.30;;;;;;4451601;32;79804;-65
2024/03/26 11:55:51;;;;;;;0.20;0.20;;;17.40;90.20;;;;;;4453581;32;20076;-63
2024/03/26 11:58:17;;;;;;;0.22;0.22;;;17.60;89.10;;;;;;4453898;32;20455;-62
2024/03/26 12:00:42;;;;;;;0.40;0.40;;;17.40;88.10;;;;;;4456692;32;20516;-62
2024/03/26 12:03:09;;;;;;;2.55;0.50;;;17.00;88.00;;;;;;4457042;32;20077;-63
2024/03/26 12:05:35;;;;;;;0.30;0.30;;;16.80;88.50;;;;;;4455100;32;20438;-62
2024/03/26 12:08:00;;;;;;;0.43;0.43;;;16.70;88.00;;;;;;4456802;32;20084;-63
2024/03/26 12:10:26;;;;;;;0.40;0.40;;;16.60;88.90;;;;;;4455574;32;20594;-62
2024/03/26 12:12:54;;;;;;;0.40;0.40;;;16.10;90.00;;;;;;4457458;32;20127;-64
2024/03/26 12:15:20;;;;;;;0.50;0.50;;;16.00;90.60;;;;;;4456217;32;20065;-63
2024/03/26 12:17:47;;;;;;;0.32;0.32;;;15.90;91.90;;;;;;4458309;32;20072;-64
2024/03/26 12:20:12;;;;;;;0.40;0.40;;;15.80;91.20;;;;;;4449256;32;20446;-63
2024/03/26 12:22:40;;;;;;;0.60;0.60;;;15.80;91.30;;;;;;4457594;32;20118;-63
2024/03/26 12:25:07;;;;;;;0.55;0.55;;;16.00;91.40;;;;;;4457085;32;20064;-63
2024/03/26 12:27:33;;;;;;;0.47;0.47;;;16.30;90.90;;;;;;4449208;32;20097;-63
2024/03/26 12:29:58;;;;;;;0.68;0.68;;;16.00;90.60;;;;;;4450414;32;20127;-63
2024/03/26 12:32:31;;;;;;;0.60;0.60;;;15.90;90.70;;;;;;4456350;32;20073;-62
2024/03/26 12:34:59;;;;;;;0.73;0.73;;;15.60;91.00;;;;;;4458335;32;20069;-63
2024/03/26 12:37:26;;;;;;;0.52;0.52;;;15.60;91.40;;;;;;4458605;32;20086;-63
2024/03/26 12:39:51;;;;;;;0.40;0.40;;;15.40;91.80;;;;;;4458247;32;20084;-63
2024/03/26 12:42:17;;;;;;;1.65;0.50;;;15.10;92.20;;;;;;4456470;32;20587;-64
2024/03/26 12:44:42;;;;;;;0.43;0.43;;;15.20;92.10;;;;;;4455501;32;20061;-67
2024/03/26 12:47:08;;;;;;;0.32;0.32;;;15.40;91.70;;;;;;4455889;32;20092;-64